Time;durP1;ratioP1;P1;durP2;ratioP2;P2;SDS_P1;SDS_P2;PMS_P1;PMS_P2;Temp;Humidity;BMP_temperature;BMP_pressure;BME280_temperature;BME280_humidity;BME280_pressure;Samples;Min_cycle;Max_cycle;Signal;HPM_P1;HPM_P2
2023/05/27 00:01:52;;;;;;;13.60;3.20;;;;;;;8.95;58.21;101419.27;104019;277;38260;-70
2023/05/27 00:04:34;;;;;;;12.20;3.60;;;;;;;8.90;58.56;101424.25;104019;277;39010;-70
2023/05/27 00:07:08;;;;;;;10.90;3.10;;;;;;;8.83;58.84;101421.20;104075;277;38266;-72
2023/05/27 00:09:42;;;;;;;12.20;3.00;;;;;;;8.76;58.90;101423.20;104063;277;38547;-73
2023/05/27 00:12:21;;;;;;;16.80;4.20;;;;;;;8.71;58.94;101426.41;104033;277;39064;-73
2023/05/27 00:15:07;;;;;;;12.30;3.10;;;;;;;8.67;59.14;101429.94;104004;277;39445;-72
2023/05/27 00:17:45;;;;;;;8.10;2.50;;;;;;;8.61;59.52;101432.81;103853;277;38453;-72
2023/05/27 00:20:24;;;;;;;9.80;3.60;;;;;;;8.58;59.70;101433.38;104051;277;39455;-72
2023/05/27 00:22:59;;;;;;;;;;;;;;;8.54;59.90;101429.76;103992;277;38294;-72
2023/05/27 00:25:33;;;;;;;11.10;3.60;;;;;;;8.44;60.40;101428.48;103978;277;38256;-72
2023/05/27 00:28:11;;;;;;;9.50;3.40;;;;;;;8.40;60.42;101430.10;103939;277;38367;-71
2023/05/27 00:30:45;;;;;;;10.00;3.70;;;;;;;8.37;60.72;101432.05;103929;277;38994;-72
2023/05/27 00:33:21;;;;;;;12.00;3.70;;;;;;;8.30;60.92;101434.02;103969;277;38269;-71
2023/05/27 00:35:56;;;;;;;7.80;3.40;;;;;;;8.22;61.01;101434.98;103841;277;189732;-73
2023/05/27 00:38:30;;;;;;;11.10;3.80;;;;;;;8.15;61.35;101432.63;103809;277;175389;-73
2023/05/27 00:41:05;;;;;;;9.80;3.10;;;;;;;8.11;61.43;101429.37;103905;277;38245;-72
2023/05/27 00:43:40;;;;;;;9.90;3.40;;;;;;;8.10;61.73;101429.55;103927;277;38558;-72
2023/05/27 00:46:15;;;;;;;9.50;3.00;;;;;;;8.06;62.10;101424.39;103909;277;38257;-72
2023/05/27 00:48:57;;;;;;;9.70;3.80;;;;;;;8.02;62.45;101425.30;103931;277;39438;-73
2023/05/27 00:51:31;;;;;;;10.50;3.60;;;;;;;7.97;62.43;101425.69;103951;277;38227;-74
2023/05/27 00:54:15;;;;;;;11.30;3.20;;;;;;;7.95;62.57;101427.80;103931;277;39924;-73
2023/05/27 00:56:52;;;;;;;9.70;3.30;;;;;;;7.90;62.71;101429.06;103967;277;38543;-72
2023/05/27 00:59:28;;;;;;;10.80;3.30;;;;;;;7.84;63.01;101431.04;103992;277;38240;-73
2023/05/27 01:02:04;;;;;;;10.50;3.50;;;;;;;7.79;63.21;101430.05;103987;277;38256;-71
2023/05/27 01:04:46;;;;;;;8.00;3.20;;;;;;;7.73;63.44;101433.23;103847;278;38229;-73
2023/05/27 01:07:30;;;;;;;12.10;4.30;;;;;;;7.68;64.10;101428.41;103869;278;38963;-70
2023/05/27 01:10:08;;;;;;;13.10;4.10;;;;;;;7.65;64.49;101428.95;103843;278;38713;-71
2023/05/27 01:12:50;;;;;;;9.80;4.00;;;;;;;7.62;64.42;101426.20;103877;278;38913;-72
2023/05/27 01:15:25;;;;;;;9.30;3.50;;;;;;;7.59;64.52;101425.71;103828;278;39686;-72
2023/05/27 01:18:04;;;;;;;12.20;3.70;;;;;;;7.55;64.61;101429.04;103791;278;39915;-73
2023/05/27 01:20:40;;;;;;;14.80;4.20;;;;;;;7.49;64.93;101429.61;103837;278;38883;-73
2023/05/27 01:23:15;;;;;;;11.10;3.80;;;;;;;7.46;65.38;101425.48;103826;278;38821;-72
2023/05/27 01:25:50;;;;;;;13.60;4.40;;;;;;;7.41;65.29;101426.21;103857;278;38690;-73
2023/05/27 01:28:27;;;;;;;11.70;3.20;;;;;;;7.37;65.63;101423.81;103719;278;172709;-72
2023/05/27 01:31:12;;;;;;;10.40;3.30;;;;;;;7.34;65.81;101431.11;103836;278;38412;-72
2023/05/27 01:34:02;;;;;;;11.20;3.30;;;;;;;7.32;65.97;101430.63;103852;278;39708;-72
2023/05/27 01:36:43;;;;;;;11.60;3.50;;;;;;;7.24;66.20;101431.72;103887;278;38267;-71
2023/05/27 01:39:18;;;;;;;10.40;3.60;;;;;;;7.19;66.29;101433.33;103901;278;39604;-72
2023/05/27 01:42:00;;;;;;;12.90;3.60;;;;;;;7.16;66.63;101436.28;103871;277;38364;-73
2023/05/27 01:44:38;;;;;;;11.70;4.20;;;;;;;7.14;66.67;101437.86;103840;278;38772;-73
2023/05/27 01:47:12;;;;;;;10.10;3.50;;;;;;;7.12;67.26;101435.63;103869;278;38372;-73
2023/05/27 01:49:48;;;;;;;9.60;3.70;;;;;;;7.08;67.27;101438.77;103869;278;38230;-73
2023/05/27 01:52:22;;;;;;;11.80;3.60;;;;;;;7.04;67.47;101441.40;103785;278;38281;-73
2023/05/27 01:54:56;;;;;;;8.90;3.10;;;;;;;7.01;67.53;101442.46;103893;278;38516;-73
2023/05/27 01:57:32;;;;;;;11.50;3.50;;;;;;;6.99;67.67;101444.73;103842;278;38209;-70
2023/05/27 02:00:09;;;;;;;11.90;3.70;;;;;;;6.96;68.07;101445.09;103807;278;38519;-72
2023/05/27 02:02:45;;;;;;;13.50;4.20;;;;;;;6.92;68.19;101444.95;103829;278;38227;-70
2023/05/27 02:05:21;;;;;;;10.20;3.60;;;;;;;6.92;68.37;101445.81;103898;274;38348;-72
2023/05/27 02:07:56;;;;;;;10.20;4.10;;;;;;;6.88;68.38;101449.65;103887;277;38234;-72
2023/05/27 02:10:30;;;;;;;9.70;3.40;;;;;;;6.83;68.49;101448.64;103917;277;38631;-72
2023/05/27 02:13:05;;;;;;;9.30;3.50;;;;;;;6.79;68.68;101451.09;103906;277;38842;-72
2023/05/27 02:15:42;;;;;;;9.20;3.60;;;;;;;6.74;68.84;101450.92;103965;277;38408;-72
2023/05/27 02:18:16;;;;;;;9.70;3.90;;;;;;;6.69;69.03;101452.70;103946;277;38497;-73
2023/05/27 02:20:52;;;;;;;12.30;3.60;;;;;;;6.66;69.19;101452.52;103844;277;172752;-72
2023/05/27 02:23:26;;;;;;;10.50;3.90;;;;;;;6.65;69.60;101450.63;103949;277;38772;-73
2023/05/27 02:26:02;;;;;;;9.50;3.40;;;;;;;6.64;69.71;101456.70;103975;266;38524;-72
2023/05/27 02:28:36;;;;;;;12.30;4.20;;;;;;;6.62;69.85;101456.54;103990;277;38256;-69
2023/05/27 02:31:13;;;;;;;11.60;3.30;;;;;;;6.60;70.26;101462.45;104044;277;40129;-72
2023/05/27 02:33:47;;;;;;;11.80;3.60;;;;;;;6.61;70.35;101461.75;103961;277;38649;-70
2023/05/27 02:36:23;;;;;;;10.00;3.50;;;;;;;6.64;70.43;101462.59;103683;277;38237;-70
2023/05/27 02:38:58;;;;;;;10.80;3.40;;;;;;;6.62;70.31;101465.55;103919;277;39428;-72
2023/05/27 02:41:33;;;;;;;10.30;3.50;;;;;;;6.61;70.46;101460.19;103920;277;38818;-71
2023/05/27 02:44:07;;;;;;;9.60;4.10;;;;;;;6.61;70.67;101459.84;103908;277;38705;-72
2023/05/27 02:46:45;;;;;;;12.30;3.30;;;;;;;6.58;70.78;101466.10;103961;277;38223;-72
2023/05/27 02:49:19;;;;;;;11.60;3.80;;;;;;;6.56;70.91;101470.27;103884;277;38291;-72
2023/05/27 02:51:56;;;;;;;11.20;4.20;;;;;;;6.58;71.14;101471.98;103935;277;38254;-72
2023/05/27 02:54:30;;;;;;;10.90;3.50;;;;;;;6.57;71.23;101469.91;103670;277;38304;-72
2023/05/27 02:57:07;;;;;;;10.40;3.60;;;;;;;6.56;71.46;101472.00;103938;277;38375;-72
2023/05/27 02:59:44;;;;;;;12.70;3.80;;;;;;;6.55;71.49;101472.35;103901;277;38500;-72
2023/05/27 03:02:20;;;;;;;8.90;3.30;;;;;;;6.51;71.85;101471.48;103683;268;38987;-72
2023/05/27 03:05:00;;;;;;;12.80;3.60;;;;;;;6.50;72.04;101474.27;103965;277;38355;-70
2023/05/27 03:07:37;;;;;;;11.70;3.70;;;;;;;6.50;72.23;101476.35;103984;277;38790;-72
2023/05/27 03:10:16;;;;;;;11.10;3.60;;;;;;;6.53;72.39;101475.81;103967;277;38233;-72
2023/05/27 03:12:54;;;;;;;12.70;4.70;;;;;;;6.58;72.64;101481.87;104001;277;38252;-72
2023/05/27 03:15:35;;;;;;;12.40;3.60;;;;;;;6.62;72.71;101477.52;103993;277;38237;-72
2023/05/27 03:18:12;;;;;;;11.40;3.50;;;;;;;6.66;72.97;101475.95;103774;279;38280;-72
2023/05/27 03:20:47;;;;;;;11.10;3.70;;;;;;;6.71;73.12;101474.71;104034;277;38324;-72
2023/05/27 03:23:24;;;;;;;12.30;3.80;;;;;;;6.77;73.15;101480.77;103909;277;38230;-72
2023/05/27 03:25:58;;;;;;;9.20;3.40;;;;;;;6.82;73.28;101476.91;103939;277;38386;-73
2023/05/27 03:28:32;;;;;;;11.80;4.10;;;;;;;6.88;73.30;101477.40;103956;277;39690;-71
2023/05/27 03:31:08;;;;;;;10.60;3.60;;;;;;;6.95;73.35;101477.20;103944;277;38280;-71
2023/05/27 03:33:45;;;;;;;9.90;3.40;;;;;;;7.03;73.48;101479.05;103950;277;39103;-72
2023/05/27 03:36:20;;;;;;;10.60;3.70;;;;;;;7.10;73.46;101479.71;103977;277;38653;-72
2023/05/27 03:38:58;;;;;;;12.30;3.50;;;;;;;7.21;73.44;101485.20;103825;277;38721;-72
2023/05/27 03:41:32;;;;;;;10.90;3.70;;;;;;;7.59;73.94;101481.79;103744;277;38268;-71
2023/05/27 03:44:07;;;;;;;12.10;3.40;;;;;;;8.27;74.57;101482.75;103983;277;38728;-73
2023/05/27 03:46:41;;;;;;;10.10;3.30;;;;;;;9.01;74.77;101484.47;103998;277;38762;-71
2023/05/27 03:49:18;;;;;;;10.30;3.60;;;;;;;9.75;73.28;101485.27;103992;277;38354;-73
2023/05/27 03:51:53;;;;;;;11.30;3.50;;;;;;;10.41;71.54;101485.82;103486;277;672615;-72
2023/05/27 03:54:29;;;;;;;11.00;3.50;;;;;;;10.95;69.14;101490.30;103827;279;39644;-73
2023/05/27 03:57:03;;;;;;;12.60;3.30;;;;;;;11.50;67.66;101488.02;103993;277;40085;-71
2023/05/27 03:59:40;;;;;;;10.20;3.80;;;;;;;12.02;65.77;101488.50;103995;277;38264;-72
2023/05/27 04:02:16;;;;;;;9.10;4.20;;;;;;;12.54;64.16;101495.80;103967;277;38784;-72
2023/05/27 04:04:50;;;;;;;11.00;3.50;;;;;;;13.06;62.31;101493.41;103962;273;38479;-73
2023/05/27 04:07:28;;;;;;;9.40;3.50;;;;;;;13.53;60.59;101500.73;103948;277;39698;-72
2023/05/27 04:10:02;;;;;;;8.00;3.20;;;;;;;13.95;58.26;101505.33;103979;277;38651;-73
2023/05/27 04:12:37;;;;;;;9.70;3.20;;;;;;;14.16;57.28;101504.06;103965;277;37958;-73
2023/05/27 04:15:13;;;;;;;9.00;3.60;;;;;;;14.29;56.11;101502.20;103944;277;38459;-73
2023/05/27 04:17:51;;;;;;;8.10;3.10;;;;;;;14.23;55.35;101506.81;103982;277;39088;-71
2023/05/27 04:20:25;;;;;;;9.30;3.50;;;;;;;13.85;55.24;101512.13;103963;277;38693;-73
2023/05/27 04:23:01;;;;;;;11.20;3.00;;;;;;;13.41;55.46;101517.61;103956;277;38333;-71
2023/05/27 04:25:37;;;;;;;10.30;4.00;;;;;;;12.96;55.95;101517.02;103733;279;38913;-72
2023/05/27 04:28:13;;;;;;;7.20;3.30;;;;;;;12.61;56.97;101520.83;103930;277;38279;-72
2023/05/27 04:30:50;;;;;;;8.00;3.60;;;;;;;12.35;57.72;101520.68;103941;277;38325;-73
2023/05/27 04:33:24;;;;;;;8.00;2.90;;;;;;;12.15;58.56;101523.48;103977;277;38357;-71
2023/05/27 04:35:58;;;;;;;11.50;3.90;;;;;;;12.04;59.17;101526.04;104018;277;38225;-73
2023/05/27 04:38:34;;;;;;;8.60;3.50;;;;;;;11.93;59.44;101521.43;103974;277;38320;-73
2023/05/27 04:41:10;;;;;;;11.30;3.30;;;;;;;11.86;59.84;101522.65;103989;318;38504;-70
2023/05/27 04:43:48;;;;;;;7.10;2.90;;;;;;;11.83;60.16;101528.12;103743;279;39352;-72
2023/05/27 04:46:25;;;;;;;;;;;;;;;11.73;60.56;101523.45;103822;279;39744;-72
2023/05/27 04:49:06;;;;;;;8.40;3.20;;;;;;;11.63;61.13;101523.02;103983;277;38502;-73
2023/05/27 04:51:41;;;;;;;9.40;4.00;;;;;;;11.70;61.56;101520.55;103969;277;39417;-72
2023/05/27 04:54:17;;;;;;;14.20;3.10;;;;;;;11.97;61.46;101518.86;103919;277;39515;-73
2023/05/27 04:56:55;;;;;;;9.60;3.40;;;;;;;12.42;61.04;101515.74;103266;277;916006;-72
2023/05/27 04:59:46;;;;;;;9.20;3.50;;;;;;;13.23;61.64;101523.40;103921;277;38551;-71
2023/05/27 05:02:27;;;;;;;10.30;2.90;;;;;;;14.28;58.95;101517.70;103924;277;38264;-72
2023/05/27 05:05:13;;;;;;;8.80;3.30;;;;;;;15.10;57.90;101516.97;103761;277;39626;-77
2023/05/27 05:07:55;;;;;;;7.60;3.10;;;;;;;15.98;54.94;101519.09;103970;277;38264;-73
2023/05/27 05:10:32;;;;;;;7.20;2.80;;;;;;;16.63;52.45;101523.84;103912;277;38665;-72
2023/05/27 05:13:08;;;;;;;11.10;3.10;;;;;;;17.19;51.28;101523.58;103931;277;38242;-74
2023/05/27 05:15:45;;;;;;;10.00;2.70;;;;;;;18.00;50.18;101519.27;103927;274;38237;-73
2023/05/27 05:18:19;;;;;;;6.40;2.90;;;;;;;18.52;46.98;101512.35;103914;277;39914;-73
2023/05/27 05:20:53;;;;;;;8.40;2.60;;;;;;;18.96;46.30;101506.84;103936;277;38281;-73
2023/05/27 05:23:34;;;;;;;6.30;2.80;;;;;;;19.40;45.08;101508.22;103907;277;38278;-73
2023/05/27 05:26:14;;;;;;;6.20;2.40;;;;;;;20.02;43.88;101503.05;103826;277;39466;-74
2023/05/27 05:28:53;;;;;;;5.80;2.90;;;;;;;20.49;42.27;101503.24;103958;277;38833;-72
2023/05/27 05:31:27;;;;;;;;;;;;;;;20.92;41.41;101506.23;103921;277;38849;-70
2023/05/27 05:34:04;;;;;;;7.60;2.70;;;;;;;21.35;40.57;101512.73;103742;277;38713;-73
2023/05/27 05:36:39;;;;;;;4.40;1.80;;;;;;;21.62;39.13;101511.84;103960;277;38832;-72
2023/05/27 05:39:16;;;;;;;7.00;2.40;;;;;;;21.76;38.24;101509.48;103917;277;38491;-73
2023/05/27 05:41:55;;;;;;;6.80;2.40;;;;;;;22.04;38.04;101512.79;103897;277;38280;-73
2023/05/27 05:44:31;;;;;;;7.50;2.40;;;;;;;22.30;36.50;101511.70;103881;277;38853;-73
2023/05/27 05:47:11;;;;;;;13.20;2.80;;;;;;;22.35;35.68;101514.88;103895;277;38325;-73
2023/05/27 05:49:47;;;;;;;7.80;2.50;;;;;;;22.36;35.26;101515.55;103878;277;38257;-72
2023/05/27 05:52:21;;;;;;;4.00;1.80;;;;;;;22.57;35.21;101513.89;103884;277;38510;-74
2023/05/27 05:54:57;;;;;;;5.30;2.10;;;;;;;22.98;35.57;101512.26;103880;277;39679;-74
2023/05/27 05:57:34;;;;;;;4.40;2.00;;;;;;;23.61;35.00;101516.19;103931;277;39604;-73
2023/05/27 06:00:12;;;;;;;6.00;2.10;;;;;;;23.94;32.51;101514.61;103895;277;38363;-72
2023/05/27 06:02:51;;;;;;;5.10;1.90;;;;;;;23.92;32.17;101519.27;103893;277;38634;-72
2023/05/27 06:05:30;;;;;;;11.00;2.20;;;;;;;24.08;31.69;101517.51;103736;277;174442;-71
2023/05/27 06:08:05;;;;;;;;;;;;;;;24.37;31.69;101524.17;103911;274;38449;-73
2023/05/27 06:10:42;;;;;;;4.30;2.10;;;;;;;24.70;31.26;101523.73;103926;277;38231;-72
2023/05/27 06:13:18;;;;;;;4.90;1.60;;;;;;;25.15;30.26;101527.10;103908;277;39469;-73
2023/05/27 06:15:52;;;;;;;8.50;1.80;;;;;;;25.42;29.65;101533.29;103951;277;39718;-73
2023/05/27 06:18:33;;;;;;;5.30;1.50;;;;;;;25.48;29.23;101532.21;103943;277;39052;-72
2023/05/27 06:21:07;;;;;;;7.20;2.10;;;;;;;25.64;27.71;101534.70;103998;275;38249;-74
2023/05/27 06:23:41;;;;;;;3.30;1.50;;;;;;;25.66;28.17;101537.33;103966;266;38455;-74
2023/05/27 06:26:28;;;;;;;5.30;2.10;;;;;;;25.89;27.42;101536.14;103943;277;38572;-73
2023/05/27 06:29:16;;;;;;;3.60;1.50;;;;;;;25.94;27.13;101540.06;103716;279;38433;-74
2023/05/27 06:31:59;;;;;;;3.50;1.50;;;;;;;26.30;26.84;101543.64;103913;277;38551;-71
2023/05/27 06:34:39;;;;;;;7.80;1.60;;;;;;;26.35;26.95;101546.24;103702;277;38736;-71
2023/05/27 06:37:15;;;;;;;4.10;1.70;;;;;;;26.48;26.06;101546.12;103833;277;38239;-72
2023/05/27 06:39:49;;;;;;;2.60;1.50;;;;;;;26.40;25.29;101549.39;103917;277;38568;-72
2023/05/27 06:42:25;;;;;;;4.50;1.80;;;;;;;26.19;25.51;101555.43;103816;277;189073;-72
2023/05/27 06:45:00;;;;;;;3.50;1.70;;;;;;;26.29;25.59;101551.73;103938;277;38482;-73
2023/05/27 06:47:37;;;;;;;5.20;1.90;;;;;;;26.66;25.40;101554.87;103949;277;38409;-74
2023/05/27 06:50:13;;;;;;;2.90;1.50;;;;;;;26.87;25.12;101549.60;103948;277;38275;-74
2023/05/27 06:52:49;;;;;;;3.80;1.70;;;;;;;27.23;24.70;101546.36;103913;277;38651;-73
2023/05/27 06:55:25;;;;;;;7.70;2.00;;;;;;;27.16;24.61;101550.05;103950;277;38490;-73
2023/05/27 06:57:59;;;;;;;2.80;1.40;;;;;;;27.15;24.91;101548.23;103962;277;39424;-73
2023/05/27 07:00:35;;;;;;;3.50;1.60;;;;;;;27.19;24.47;101548.48;103817;277;174215;-73
2023/05/27 07:03:12;;;;;;;4.50;1.80;;;;;;;27.09;24.02;101547.08;104003;277;38817;-72
2023/05/27 07:05:46;;;;;;;4.90;1.80;;;;;;;27.22;24.26;101549.48;103829;278;38257;-71
2023/05/27 07:08:23;;;;;;;8.40;1.90;;;;;;;27.53;23.90;101554.39;104026;277;38946;-72
2023/05/27 07:11:00;;;;;;;7.40;1.60;;;;;;;27.72;23.61;101556.46;103995;277;38968;-73
2023/05/27 07:13:36;;;;;;;4.20;1.60;;;;;;;27.86;23.50;101553.21;103962;277;39157;-74
2023/05/27 07:16:12;;;;;;;3.30;1.40;;;;;;;27.77;23.29;101550.42;103602;277;174263;-73
2023/05/27 07:18:50;;;;;;;6.20;1.60;;;;;;;27.96;24.04;101554.64;103844;277;174118;-73
2023/05/27 07:21:27;;;;;;;5.60;1.80;;;;;;;28.20;22.24;101550.33;103788;277;38917;-74
2023/05/27 07:24:03;;;;;;;3.40;1.10;;;;;;;28.19;22.12;101548.45;103935;277;38838;-75
2023/05/27 07:26:40;;;;;;;6.50;1.60;;;;;;;28.26;22.83;101548.21;103747;277;40020;-74
2023/05/27 07:29:14;;;;;;;3.80;1.40;;;;;;;28.63;22.25;101543.26;103947;277;38466;-74
2023/05/27 07:31:50;;;;;;;6.60;1.60;;;;;;;28.70;21.80;101548.20;103920;277;38707;-74
2023/05/27 07:34:30;;;;;;;3.70;1.30;;;;;;;28.72;21.53;101545.66;103988;277;38397;-74
2023/05/27 07:37:08;;;;;;;5.50;1.80;;;;;;;29.04;21.51;101548.15;103987;277;38273;-72
2023/05/27 07:39:48;;;;;;;;;;;;;;;29.23;20.48;101543.71;104023;277;38317;-72
2023/05/27 07:42:25;;;;;;;3.10;1.30;;;;;;;29.14;19.80;101548.77;103854;277;187846;-72
2023/05/27 07:45:02;;;;;;;5.20;1.50;;;;;;;29.20;19.94;101545.25;104004;277;38765;-73
2023/05/27 07:47:42;;;;;;;3.30;1.00;;;;;;;29.12;19.85;101543.54;103999;277;38830;-74
2023/05/27 07:50:26;;;;;;;4.80;1.60;;;;;;;29.23;19.72;101538.48;103972;266;38810;-73
2023/05/27 07:53:01;;;;;;;3.60;1.50;;;;;;;29.17;19.32;101539.65;104029;277;38275;-73
2023/05/27 07:55:37;;;;;;;3.10;1.30;;;;;;;29.17;19.65;101538.59;104020;277;38611;-73
2023/05/27 07:58:12;;;;;;;4.50;1.40;;;;;;;29.33;19.67;101531.42;103993;277;39257;-72
2023/05/27 08:00:49;;;;;;;2.40;1.10;;;;;;;29.54;19.66;101529.69;104003;277;38484;-72
2023/05/27 08:03:28;;;;;;;2.80;1.50;;;;;;;29.40;19.10;101532.56;103982;277;38888;-72
2023/05/27 08:06:06;;;;;;;6.70;2.30;;;;;;;29.17;19.20;101528.71;103824;278;40797;-76
2023/05/27 08:08:44;;;;;;;3.70;1.00;;;;;;;29.45;19.84;101522.84;103808;278;38735;-72
2023/05/27 08:11:18;;;;;;;;;;;;;;;29.77;19.15;101528.30;103812;278;38720;-74
2023/05/27 08:13:53;;;;;;;4.30;1.60;;;;;;;29.85;18.80;101523.70;103818;278;38264;-74
2023/05/27 08:16:33;;;;;;;5.80;1.40;;;;;;;30.11;18.16;101522.50;103815;278;38304;-72
2023/05/27 08:19:10;;;;;;;5.60;1.20;;;;;;;30.18;17.82;101526.83;103859;278;38218;-71
2023/05/27 08:21:59;;;;;;;3.00;1.00;;;;;;;30.03;17.64;101522.41;103865;278;38481;-73
2023/05/27 08:24:33;;;;;;;6.90;2.10;;;;;;;29.70;17.46;101524.46;103843;278;39885;-74
2023/05/27 08:27:18;;;;;;;2.40;1.20;;;;;;;29.72;17.05;101523.80;103861;279;38278;-73
2023/05/27 08:29:54;;;;;;;8.00;1.30;;;;;;;29.56;17.38;101523.00;103856;278;38264;-78
2023/05/27 08:32:33;;;;;;;7.70;1.40;;;;;;;29.47;17.45;101519.25;103825;278;38695;-72
2023/05/27 08:35:10;;;;;;;2.70;1.10;;;;;;;29.57;17.85;101517.93;103794;278;38587;-72
2023/05/27 08:37:47;;;;;;;4.30;1.50;;;;;;;29.76;17.52;101519.05;103687;279;39497;-73
2023/05/27 08:40:26;;;;;;;11.20;1.40;;;;;;;29.82;15.42;101518.85;103810;279;38267;-73
2023/05/27 08:43:02;;;;;;;9.90;1.40;;;;;;;29.43;15.51;101511.39;103832;278;38339;-74
2023/05/27 08:45:40;;;;;;;3.50;1.10;;;;;;;29.30;16.27;101514.09;103778;278;38672;-73
2023/05/27 08:48:13;;;;;;;;;;;;;;;29.63;15.71;101517.98;103736;278;174136;-74
2023/05/27 08:50:51;;;;;;;3.60;1.30;;;;;;;29.71;15.88;101515.95;103816;278;38706;-73
2023/05/27 08:53:26;;;;;;;7.40;1.70;;;;;;;30.03;16.13;101517.68;103789;278;38285;-72
2023/05/27 08:56:05;;;;;;;8.70;1.80;;;;;;;30.11;14.77;101522.65;103829;278;38231;-73
2023/05/27 08:58:41;;;;;;;8.80;1.10;;;;;;;30.07;14.74;101513.77;103761;278;38243;-75
2023/05/27 09:01:16;;;;;;;6.30;1.00;;;;;;;30.06;14.18;101509.84;103833;278;39442;-74
2023/05/27 09:03:56;;;;;;;7.60;3.30;;;;;;;30.06;14.59;101511.77;103866;278;39563;-76
2023/05/27 09:06:31;;;;;;;;;;;;;;;30.11;14.75;101505.41;103971;277;38532;-74
2023/05/27 09:09:07;;;;;;;2.20;0.90;;;;;;;29.59;14.63;101506.36;103976;265;38265;-76
2023/05/27 09:11:47;;;;;;;2.10;1.10;;;;;;;29.24;15.80;101505.49;104009;277;39604;-75
2023/05/27 09:14:26;;;;;;;1.90;0.60;;;;;;;29.07;15.59;101505.48;103935;277;39594;-74
2023/05/27 09:17:07;;;;;;;3.40;1.10;;;;;;;28.58;15.35;101505.90;103947;277;39830;-76
2023/05/27 09:19:42;;;;;;;3.60;1.00;;;;;;;28.16;15.78;101507.34;103801;277;38256;-77
2023/05/27 09:22:25;;;;;;;2.40;0.80;;;;;;;27.92;15.02;101510.13;103726;277;40715;-74
2023/05/27 09:25:02;;;;;;;3.50;1.00;;;;;;;27.52;15.29;101509.32;103900;277;38271;-75
2023/05/27 09:27:37;;;;;;;2.40;0.90;;;;;;;27.15;15.34;101507.86;103956;277;39955;-75
2023/05/27 09:30:22;;;;;;;1.90;0.70;;;;;;;26.53;16.73;101503.52;103908;277;39444;-74
2023/05/27 09:33:07;;;;;;;2.50;0.80;;;;;;;25.98;16.60;101507.85;103887;277;38757;-74
2023/05/27 09:35:46;;;;;;;2.00;0.90;;;;;;;25.52;17.03;101505.49;103886;277;38578;-74
2023/05/27 09:38:23;;;;;;;2.60;1.00;;;;;;;25.29;16.95;101509.37;103776;278;38373;-76
2023/05/27 09:40:59;;;;;;;5.00;1.10;;;;;;;25.20;17.17;101511.13;103915;277;39538;-74
2023/05/27 09:43:34;;;;;;;3.80;1.00;;;;;;;25.03;17.41;101511.86;103949;277;38945;-75
2023/05/27 09:46:15;;;;;;;2.40;0.90;;;;;;;24.87;17.92;101509.48;103960;277;38348;-76
2023/05/27 09:48:50;;;;;;;4.70;1.10;;;;;;;24.63;17.36;101516.94;103950;277;38796;-76
2023/05/27 09:51:26;;;;;;;3.60;1.20;;;;;;;24.53;17.92;101511.89;103774;266;38278;-75
2023/05/27 09:54:01;;;;;;;2.10;1.00;;;;;;;24.48;17.63;101513.36;103976;277;38794;-77
2023/05/27 09:56:38;;;;;;;2.30;0.90;;;;;;;24.45;17.71;101516.55;103954;277;38553;-79
2023/05/27 09:59:16;;;;;;;3.20;1.10;;;;;;;24.34;18.06;101511.15;103979;277;38529;-78
2023/05/27 10:01:51;;;;;;;4.70;1.00;;;;;;;24.37;18.35;101511.15;103822;268;38564;-75
2023/05/27 10:04:25;;;;;;;2.20;0.70;;;;;;;24.27;17.29;101510.30;103923;277;38834;-76
2023/05/27 10:06:59;;;;;;;6.50;1.40;;;;;;;23.94;16.98;101514.60;103919;277;39984;-75
2023/05/27 10:09:34;;;;;;;1.50;1.00;;;;;;;23.70;17.32;101516.95;103086;277;897214;-75
2023/05/27 10:12:11;;;;;;;3.30;1.40;;;;;;;23.62;18.23;101518.77;103907;277;39129;-74
2023/05/27 10:14:48;;;;;;;3.40;1.00;;;;;;;23.59;18.57;101521.84;103911;277;39683;-76
2023/05/27 10:17:24;;;;;;;6.90;1.10;;;;;;;23.50;18.66;101519.99;103905;277;39417;-73
2023/05/27 10:20:03;;;;;;;2.30;0.90;;;;;;;23.38;18.74;101526.98;103962;277;38451;-74
2023/05/27 10:22:48;;;;;;;2.20;0.90;;;;;;;23.36;17.90;101522.89;103928;277;38371;-73
2023/05/27 10:25:24;;;;;;;5.40;1.80;;;;;;;23.38;18.61;101525.23;103883;277;38406;-75
2023/05/27 10:27:58;;;;;;;3.40;1.20;;;;;;;23.35;18.39;101521.86;103911;277;39660;-74
2023/05/27 10:30:43;;;;;;;4.00;1.00;;;;;;;23.26;18.21;101512.92;103796;277;39945;-74
2023/05/27 10:33:18;;;;;;;5.90;1.00;;;;;;;23.26;18.95;101516.28;103933;277;38883;-74
2023/05/27 10:35:55;;;;;;;3.40;1.00;;;;;;;23.26;18.43;101520.20;103926;277;38275;-75
2023/05/27 10:38:30;;;;;;;4.50;1.00;;;;;;;23.08;18.26;101521.85;103967;277;38234;-75
2023/05/27 10:41:07;;;;;;;1.80;0.80;;;;;;;22.90;18.85;101518.90;103976;277;38386;-73
2023/05/27 10:43:58;;;;;;;2.40;1.20;;;;;;;22.84;19.49;101514.65;103998;277;38406;-73
2023/05/27 10:46:43;;;;;;;2.50;1.10;;;;;;;22.85;19.21;101518.70;103983;277;39339;-72
2023/05/27 10:49:27;;;;;;;2.50;1.20;;;;;;;22.72;18.72;101514.30;103985;277;38520;-72
2023/05/27 10:52:04;;;;;;;1.90;0.70;;;;;;;22.58;19.13;101508.50;104002;277;38444;-73
2023/05/27 10:54:40;;;;;;;1.40;0.80;;;;;;;22.56;19.56;101513.10;104048;277;38415;-73
2023/05/27 10:57:17;;;;;;;3.60;1.30;;;;;;;22.41;19.75;101510.95;104006;277;38313;-72
2023/05/27 10:59:56;;;;;;;2.30;1.00;;;;;;;22.30;20.20;101513.52;103679;279;40273;-74
2023/05/27 11:02:40;;;;;;;4.20;1.20;;;;;;;22.17;20.68;101507.48;103974;277;39814;-73
2023/05/27 11:05:21;;;;;;;2.60;1.00;;;;;;;22.04;20.17;101508.13;103985;277;38224;-73
2023/05/27 11:07:57;;;;;;;4.60;1.40;;;;;;;21.88;20.32;101505.11;103750;277;38294;-73
2023/05/27 11:10:40;;;;;;;4.40;1.60;;;;;;;21.86;20.22;101509.02;104025;277;39370;-73
2023/05/27 11:13:20;;;;;;;4.10;1.50;;;;;;;21.87;20.32;101509.80;103848;278;38287;-74
2023/05/27 11:16:00;;;;;;;3.30;1.00;;;;;;;21.82;20.50;101504.15;103987;277;38397;-73
2023/05/27 11:18:47;;;;;;;2.00;1.00;;;;;;;21.75;20.66;101504.77;103832;277;38272;-71
2023/05/27 11:21:25;;;;;;;1.60;1.00;;;;;;;21.72;21.24;101505.17;104010;277;39440;-73
2023/05/27 11:24:03;;;;;;;3.60;1.00;;;;;;;21.59;20.86;101504.77;103997;277;39673;-71
2023/05/27 11:26:47;;;;;;;2.30;1.20;;;;;;;21.42;22.06;101500.79;104023;277;38791;-74
2023/05/27 11:29:27;;;;;;;3.40;1.00;;;;;;;21.41;21.90;101499.77;104000;277;38290;-74
2023/05/27 11:32:04;;;;;;;2.00;0.90;;;;;;;21.36;21.87;101499.52;104030;277;39932;-74
2023/05/27 11:34:41;;;;;;;1.40;0.80;;;;;;;21.24;21.86;101495.86;103981;277;38349;-72
2023/05/27 11:37:16;;;;;;;3.90;1.20;;;;;;;21.16;21.81;101496.39;103810;277;188410;-72
2023/05/27 11:40:00;;;;;;;5.50;1.00;;;;;;;21.18;21.87;101500.54;103797;266;38414;-73
2023/05/27 11:42:34;;;;;;;2.20;0.80;;;;;;;21.10;21.25;101497.10;103955;277;38900;-75
2023/05/27 11:45:19;;;;;;;4.00;0.90;;;;;;;21.05;21.14;101490.84;103735;277;39545;-73
2023/05/27 11:47:56;;;;;;;3.30;0.80;;;;;;;21.02;21.46;101493.54;103974;277;39705;-73
2023/05/27 11:50:31;;;;;;;1.70;0.80;;;;;;;20.94;20.67;101500.45;103964;277;40082;-74
2023/05/27 11:53:07;;;;;;;1.50;0.80;;;;;;;20.86;21.13;101490.84;103478;277;598830;-77
2023/05/27 11:55:43;;;;;;;2.40;0.80;;;;;;;20.77;21.43;101485.35;103769;279;38368;-77
2023/05/27 11:58:23;;;;;;;4.00;1.10;;;;;;;20.76;21.34;101479.56;104056;277;39429;-79
2023/05/27 12:01:03;;;;;;;2.00;1.10;;;;;;;20.78;21.54;101472.77;104011;277;38988;-77
2023/05/27 12:03:42;;;;;;;3.60;1.70;;;;;;;20.78;21.56;101473.05;103964;277;38224;-76
2023/05/27 12:06:23;;;;;;;2.50;1.00;;;;;;;20.76;21.39;101476.59;104091;277;39429;-76
2023/05/27 12:09:00;;;;;;;2.20;0.80;;;;;;;20.69;20.94;101470.63;104077;277;39667;-75
2023/05/27 12:11:34;;;;;;;4.50;1.70;;;;;;;20.55;20.45;101471.66;104060;277;39648;-77
2023/05/27 12:14:11;;;;;;;4.50;3.10;;;;;;;20.43;20.82;101463.71;103987;277;38306;-77